createdAt,value
2023-03-11T00:00:48.327Z,3.40
2023-03-11T00:03:28.373Z,7.00
2023-03-11T00:05:58.130Z,5.00
2023-03-11T00:08:26.213Z,4.50
2023-03-11T00:11:00.190Z,5.20
2023-03-11T00:13:29.633Z,4.10
2023-03-11T00:15:58.981Z,5.30
2023-03-11T00:18:30.850Z,5.30
2023-03-11T00:21:00.520Z,4.00
2023-03-11T00:23:28.973Z,6.90
2023-03-11T00:25:59.154Z,4.70
2023-03-11T00:28:27.296Z,7.50
2023-03-11T00:30:55.405Z,6.70
2023-03-11T00:33:23.546Z,6.70
2023-03-11T00:35:51.739Z,6.80
2023-03-11T00:38:22.805Z,4.90
2023-03-11T00:40:51.318Z,6.20
2023-03-11T00:43:19.366Z,6.60
2023-03-11T00:45:47.586Z,5.90
2023-03-11T00:48:16.278Z,5.20
2023-03-11T00:50:44.718Z,5.70
2023-03-11T00:53:12.765Z,7.90
2023-03-11T00:55:41.137Z,5.30
2023-03-11T00:58:11.973Z,5.30
2023-03-11T01:00:47.179Z,7.60
2023-03-11T01:03:15.160Z,7.50
2023-03-11T01:05:43.137Z,5.40
2023-03-11T01:08:11.243Z,8.30
2023-03-11T01:10:39.313Z,7.20
2023-03-11T01:13:07.383Z,6.80
2023-03-11T01:15:36.990Z,7.30
2023-03-11T01:18:06.086Z,9.00
2023-03-11T01:20:37.712Z,6.00
2023-03-11T01:23:06.879Z,5.00
2023-03-11T01:25:35.797Z,9.20
2023-03-11T01:28:05.988Z,4.90
2023-03-11T01:30:36.857Z,6.60
2023-03-11T01:33:06.350Z,6.30
2023-03-11T01:35:34.955Z,5.00
2023-03-11T01:38:03.133Z,6.60
2023-03-11T01:40:43.953Z,7.00
2023-03-11T01:43:40.463Z,5.40
2023-03-11T01:46:30.804Z,6.00
2023-03-11T01:49:04.345Z,8.50
2023-03-11T01:51:40.147Z,6.20
2023-03-11T01:54:23.688Z,8.70
2023-03-11T01:56:52.718Z,5.10
2023-03-11T01:59:33.074Z,4.80
2023-03-11T02:02:06.576Z,6.70
2023-03-11T02:04:36.523Z,7.70
2023-03-11T02:07:07.961Z,6.50
2023-03-11T02:09:36.375Z,6.80
2023-03-11T02:12:06.821Z,6.10
2023-03-11T02:14:35.959Z,9.10
2023-03-11T02:17:04.297Z,11.30
2023-03-11T02:19:52.258Z,6.10
2023-03-11T02:22:20.821Z,7.00
2023-03-11T02:25:25.362Z,6.90
2023-03-11T02:27:55.223Z,10.20
2023-03-11T02:30:26.922Z,9.00
2023-03-11T02:32:55.909Z,5.90
2023-03-11T02:35:25.209Z,6.70
2023-03-11T02:37:55.210Z,5.90
2023-03-11T02:40:23.402Z,5.00
2023-03-11T02:42:57.757Z,9.20
2023-03-11T02:45:29.473Z,7.00
2023-03-11T02:48:00.160Z,6.20
2023-03-11T02:50:29.810Z,7.10
2023-03-11T02:52:57.814Z,5.70
2023-03-11T02:55:26.089Z,7.90
2023-03-11T02:57:54.039Z,4.50
2023-03-11T03:00:22.295Z,5.50
2023-03-11T03:05:23.900Z,6.70
2023-03-11T03:07:52.313Z,9.30
2023-03-11T03:10:23.224Z,8.50
2023-03-11T03:12:51.412Z,7.80
2023-03-11T03:15:19.460Z,10.20
2023-03-11T03:17:47.894Z,7.30
2023-03-11T03:20:16.091Z,8.30
2023-03-11T03:22:49.916Z,8.80
2023-03-11T03:25:18.410Z,7.30
2023-03-11T03:27:46.664Z,9.70
2023-03-11T03:30:15.288Z,9.80
2023-03-11T03:32:44.203Z,9.50
2023-03-11T03:35:14.290Z,7.50
2023-03-11T03:37:56.430Z,5.50
2023-03-11T03:40:25.315Z,6.40
2023-03-11T03:42:53.607Z,8.40
2023-03-11T03:45:21.961Z,5.90
2023-03-11T03:47:52.637Z,13.60
2023-03-11T03:50:21.466Z,9.50
2023-03-11T03:52:50.301Z,7.10
2023-03-11T03:55:18.583Z,9.40
2023-03-11T03:57:46.563Z,7.80
2023-03-11T04:00:15.351Z,8.30
2023-03-11T04:02:44.790Z,6.80
2023-03-11T04:05:19.873Z,8.90
2023-03-11T04:07:48.003Z,7.90
2023-03-11T04:10:16.385Z,8.10
2023-03-11T04:12:44.547Z,7.80
2023-03-11T04:15:12.997Z,8.60
2023-03-11T04:17:41.292Z,8.80
2023-03-11T04:20:10.369Z,8.50
2023-03-11T04:22:38.559Z,8.10
2023-03-11T04:25:07.705Z,7.30
2023-03-11T04:27:37.839Z,10.00
2023-03-11T04:30:07.494Z,5.70
2023-03-11T04:32:36.061Z,8.10
2023-03-11T04:35:05.968Z,9.40
2023-03-11T04:37:34.652Z,10.90
2023-03-11T04:40:04.989Z,9.60
2023-03-11T04:42:34.376Z,10.60
2023-03-11T04:45:03.419Z,8.30
2023-03-11T04:47:31.566Z,11.10
2023-03-11T04:49:59.848Z,12.60
2023-03-11T04:52:28.272Z,8.80
2023-03-11T04:54:56.558Z,8.90
2023-03-11T04:57:24.824Z,10.60
2023-03-11T04:59:53.130Z,7.50
2023-03-11T05:02:21.539Z,8.20
2023-03-11T05:04:54.528Z,7.20
2023-03-11T05:07:23.708Z,5.50
2023-03-11T05:09:51.856Z,6.30
2023-03-11T05:12:20.110Z,7.80
2023-03-11T05:14:50.714Z,9.30
2023-03-11T05:17:22.405Z,13.30
2023-03-11T05:19:53.680Z,7.50
2023-03-11T05:22:25.517Z,12.50
2023-03-11T05:24:54.142Z,9.50
2023-03-11T05:27:22.644Z,8.90
2023-03-11T05:29:54.369Z,11.10
2023-03-11T05:32:23.095Z,7.20
2023-03-11T05:34:52.063Z,9.00
2023-03-11T05:37:20.245Z,6.80
2023-03-11T05:40:51.103Z,6.40
2023-03-11T05:43:22.442Z,9.80
2023-03-11T05:45:54.609Z,7.70
2023-03-11T05:48:23.355Z,8.90
2023-03-11T05:50:52.645Z,7.90
2023-03-11T05:53:22.462Z,8.30
2023-03-11T05:55:57.304Z,7.40
2023-03-11T05:58:29.373Z,8.20
2023-03-11T06:01:23.166Z,10.70
2023-03-11T06:04:13.602Z,11.50
2023-03-11T06:06:43.397Z,10.80
2023-03-11T06:09:15.521Z,8.40
2023-03-11T06:11:46.875Z,8.40
2023-03-11T06:14:15.884Z,7.50
2023-03-11T06:16:47.551Z,6.90
2023-03-11T06:19:15.668Z,10.00
2023-03-11T06:21:46.729Z,6.20
2023-03-11T06:24:15.122Z,8.60
2023-03-11T06:26:44.119Z,7.10
2023-03-11T06:29:14.428Z,10.30
2023-03-11T06:31:43.090Z,9.20
2023-03-11T06:34:12.273Z,8.40
2023-03-11T06:36:40.492Z,6.30
2023-03-11T06:39:12.381Z,8.30
2023-03-11T06:41:41.620Z,11.10
2023-03-11T06:44:12.287Z,8.00
2023-03-11T06:46:40.669Z,7.50
2023-03-11T06:49:08.865Z,8.60
2023-03-11T06:51:37.237Z,9.90
2023-03-11T06:54:07.020Z,7.20
2023-03-11T06:56:35.305Z,7.70
2023-03-11T06:59:06.376Z,6.60
2023-03-11T07:01:36.004Z,6.00
2023-03-11T07:04:07.717Z,8.60
2023-03-11T07:06:37.369Z,7.40
2023-03-11T07:09:15.284Z,5.90
2023-03-11T07:11:44.682Z,5.70
2023-03-11T07:14:16.655Z,8.40
2023-03-11T07:16:50.326Z,7.90
2023-03-11T07:19:24.452Z,6.70
2023-03-11T07:21:53.623Z,7.00
2023-03-11T07:24:22.214Z,7.80
2023-03-11T07:26:50.374Z,8.70
2023-03-11T07:29:19.889Z,8.50
2023-03-11T07:31:48.570Z,7.10
2023-03-11T07:34:16.674Z,8.70
2023-03-11T07:36:44.824Z,7.00
2023-03-11T07:39:18.874Z,10.50
2023-03-11T07:41:50.428Z,12.30
2023-03-11T07:44:18.726Z,8.60
2023-03-11T07:46:47.355Z,9.10
2023-03-11T07:49:15.507Z,8.30
2023-03-11T07:51:46.290Z,8.50
2023-03-11T07:54:14.325Z,6.50
2023-03-11T07:56:42.660Z,7.30
2023-03-11T07:59:14.681Z,4.50
2023-03-11T08:01:46.552Z,4.80
2023-03-11T08:04:18.826Z,6.50
2023-03-11T08:06:47.494Z,10.50
2023-03-11T08:09:15.494Z,7.00
2023-03-11T08:11:43.933Z,5.40
2023-03-11T08:14:12.371Z,7.40
2023-03-11T08:16:41.028Z,4.30
2023-03-11T08:19:13.413Z,3.20
2023-03-11T08:21:41.771Z,3.80
2023-03-11T08:24:15.386Z,4.60
2023-03-11T08:26:43.636Z,2.80
2023-03-11T08:29:11.924Z,2.00
2023-03-11T08:31:40.031Z,2.70
2023-03-11T08:34:10.637Z,3.30
2023-03-11T08:36:38.735Z,9.00
2023-03-11T08:39:07.035Z,4.60
2023-03-11T08:41:35.144Z,4.50
2023-03-11T08:44:03.616Z,6.40
2023-03-11T08:46:35.675Z,3.30
2023-03-11T08:49:05.249Z,1.60
2023-03-11T08:51:36.887Z,2.70
2023-03-11T08:54:06.160Z,1.50
2023-03-11T08:56:34.983Z,2.00
2023-03-11T08:59:06.869Z,6.10
2023-03-11T09:01:36.718Z,2.60
2023-03-11T09:04:05.147Z,2.40
2023-03-11T09:06:33.835Z,4.60
2023-03-11T09:09:03.353Z,2.70
2023-03-11T09:11:31.423Z,1.60
2023-03-11T09:13:59.557Z,2.90
2023-03-11T09:16:27.644Z,2.40
2023-03-11T09:18:56.346Z,3.60
2023-03-11T09:21:24.483Z,3.10
2023-03-11T09:23:52.663Z,2.50
2023-03-11T09:26:21.285Z,2.60
2023-03-11T09:28:49.612Z,1.40
2023-03-11T09:31:18.830Z,2.40
2023-03-11T09:33:47.769Z,2.70
2023-03-11T09:36:19.599Z,2.80
2023-03-11T09:38:48.729Z,1.50
2023-03-11T09:41:16.854Z,3.70
2023-03-11T09:44:17.425Z,4.90
2023-03-11T09:47:31.331Z,4.10
2023-03-11T09:50:16.036Z,5.00
2023-03-11T09:53:30.662Z,4.60
2023-03-11T09:56:00.886Z,3.60
2023-03-11T09:58:50.250Z,11.10
2023-03-11T10:01:33.336Z,8.90
2023-03-11T10:04:37.609Z,7.60
2023-03-11T10:07:21.275Z,7.60
2023-03-11T10:09:56.454Z,11.70
2023-03-11T10:13:12.674Z,12.30
2023-03-11T10:16:19.980Z,9.20
2023-03-11T10:19:15.838Z,8.30
2023-03-11T10:22:21.457Z,8.30
2023-03-11T10:25:20.672Z,8.50
2023-03-11T10:27:56.749Z,17.30
2023-03-11T10:30:51.544Z,8.50
2023-03-11T10:33:56.482Z,12.70
2023-03-11T10:36:49.630Z,12.50
2023-03-11T10:39:19.337Z,8.60
2023-03-11T10:41:54.723Z,11.30
2023-03-11T10:44:36.797Z,11.30
2023-03-11T10:47:12.162Z,12.00
2023-03-11T10:49:40.145Z,12.00
2023-03-11T10:52:14.294Z,10.30
2023-03-11T10:54:47.358Z,9.40
2023-03-11T10:57:38.816Z,13.80
2023-03-11T11:00:27.770Z,7.70
2023-03-11T11:02:57.660Z,11.00
2023-03-11T11:05:33.660Z,9.60
2023-03-11T11:08:11.879Z,9.00
2023-03-11T11:10:59.178Z,9.00
2023-03-11T11:13:34.941Z,8.30
2023-03-11T11:16:22.646Z,8.50
2023-03-11T11:19:14.410Z,7.10
2023-03-11T11:21:51.779Z,6.30
2023-03-11T11:24:25.652Z,6.00
2023-03-11T11:27:28.217Z,8.10
2023-03-11T11:30:08.626Z,5.30
2023-03-11T11:32:38.034Z,5.90
2023-03-11T11:35:12.058Z,6.40
2023-03-11T11:37:45.788Z,9.20
2023-03-11T11:40:14.107Z,6.10
2023-03-11T11:42:53.737Z,6.50
2023-03-11T11:45:45.959Z,4.80
2023-03-11T11:48:36.967Z,5.10
2023-03-11T11:51:19.971Z,10.40
2023-03-11T11:54:35.984Z,9.20
2023-03-11T11:57:23.587Z,9.80
2023-03-11T11:59:52.261Z,8.60
2023-03-11T12:03:12.892Z,6.30
2023-03-11T12:05:58.330Z,10.10
2023-03-11T12:08:42.201Z,8.50
2023-03-11T12:11:42.089Z,10.10
2023-03-11T12:14:48.872Z,9.10
2023-03-11T12:17:23.078Z,11.40
2023-03-11T12:20:05.638Z,10.30
2023-03-11T12:22:57.964Z,10.90
2023-03-11T12:25:38.968Z,13.00
2023-03-11T12:28:44.657Z,13.40
2023-03-11T12:31:13.601Z,13.10
2023-03-11T12:33:59.647Z,9.50
2023-03-11T12:36:57.918Z,10.50
2023-03-11T12:39:35.369Z,10.50
2023-03-11T12:42:22.486Z,8.50
2023-03-11T12:44:51.219Z,12.30
2023-03-11T12:47:25.086Z,13.40
2023-03-11T12:49:56.693Z,14.80
2023-03-11T12:52:29.642Z,13.50
2023-03-11T12:55:03.821Z,12.70
2023-03-11T12:57:40.155Z,12.90
2023-03-11T13:00:23.363Z,12.90
2023-03-11T13:03:26.813Z,14.00
2023-03-11T13:06:21.303Z,20.40
2023-03-11T13:08:54.391Z,12.40
2023-03-11T13:11:31.979Z,11.40
2023-03-11T13:14:17.718Z,12.40
2023-03-11T13:16:46.799Z,15.20
2023-03-11T13:19:26.562Z,11.60
2023-03-11T13:22:01.173Z,11.30
2023-03-11T13:24:29.209Z,10.80
2023-03-11T13:27:02.770Z,12.30
2023-03-11T13:30:03.295Z,11.90
2023-03-11T13:33:03.201Z,9.00
2023-03-11T13:36:04.668Z,9.70
2023-03-11T13:39:12.266Z,8.60
2023-03-11T13:41:44.591Z,10.30
2023-03-11T13:44:31.206Z,10.00
2023-03-11T13:47:15.988Z,10.20
2023-03-11T13:50:24.526Z,10.10
2023-03-11T13:52:54.704Z,8.70
2023-03-11T13:55:40.887Z,8.20
2023-03-11T13:58:19.272Z,9.20
2023-03-11T14:00:55.267Z,8.10
2023-03-11T14:03:36.508Z,8.60
2023-03-11T14:06:20.519Z,7.80
2023-03-11T14:08:57.385Z,7.60
2023-03-11T14:11:29.067Z,11.30
2023-03-11T14:13:57.121Z,10.40
2023-03-11T14:16:43.408Z,15.70
2023-03-11T14:19:19.564Z,8.40
2023-03-11T14:21:50.955Z,7.00
2023-03-11T14:24:26.213Z,8.20
2023-03-11T14:26:57.278Z,8.00
2023-03-11T14:29:39.127Z,5.90
2023-03-11T14:32:36.988Z,6.10
2023-03-11T14:35:21.728Z,6.20
2023-03-11T14:37:51.654Z,5.60
2023-03-11T14:40:41.335Z,4.30
2023-03-11T14:43:11.360Z,6.20
2023-03-11T14:45:42.458Z,6.20
2023-03-11T14:48:24.882Z,6.60
2023-03-11T14:50:59.080Z,6.40
2023-03-11T14:53:46.996Z,5.90
2023-03-11T14:56:21.238Z,5.80
2023-03-11T14:59:06.712Z,6.00
2023-03-11T15:01:41.333Z,5.20
2023-03-11T15:04:16.742Z,7.90
2023-03-11T15:06:46.056Z,5.60
2023-03-11T15:09:24.303Z,6.10
2023-03-11T15:12:02.186Z,8.60
2023-03-11T15:14:36.604Z,6.30
2023-03-11T15:17:33.826Z,6.80
2023-03-11T15:20:06.965Z,6.40
2023-03-11T15:22:40.322Z,6.80
2023-03-11T15:25:18.017Z,7.30
2023-03-11T15:27:47.708Z,8.10
2023-03-11T15:30:30.653Z,17.30
2023-03-11T15:32:58.757Z,7.40
2023-03-11T15:35:31.032Z,6.60
2023-03-11T15:38:22.971Z,7.20
2023-03-11T15:41:01.011Z,6.70
2023-03-11T15:43:41.116Z,7.30
2023-03-11T15:46:10.778Z,6.60
2023-03-11T15:48:39.143Z,6.90
2023-03-11T15:51:19.843Z,6.80
2023-03-11T15:53:50.099Z,6.60
2023-03-11T15:56:24.143Z,6.40
2023-03-11T15:58:52.297Z,5.80
2023-03-11T16:01:23.332Z,6.30
2023-03-11T16:03:51.526Z,6.20
2023-03-11T16:06:19.849Z,5.30
2023-03-11T16:08:48.890Z,5.10
2023-03-11T16:11:18.230Z,6.80
2023-03-11T16:13:46.353Z,5.80
2023-03-11T16:16:18.078Z,5.80
2023-03-11T16:18:46.288Z,6.60
2023-03-11T16:21:20.550Z,4.50
2023-03-11T16:23:52.147Z,5.70
2023-03-11T16:26:22.458Z,5.60
2023-03-11T16:28:51.139Z,5.20
2023-03-11T16:31:19.256Z,7.50
2023-03-11T16:33:47.424Z,6.20
2023-03-11T16:36:15.607Z,4.70
2023-03-11T16:38:48.341Z,4.60
2023-03-11T16:41:18.040Z,3.90
2023-03-11T16:43:47.754Z,3.50
2023-03-11T16:46:15.897Z,4.60
2023-03-11T16:48:44.287Z,4.50
2023-03-11T16:51:13.399Z,4.50
2023-03-11T16:53:41.928Z,5.70
2023-03-11T16:56:10.565Z,6.10
2023-03-11T16:58:38.722Z,6.10
2023-03-11T17:01:08.387Z,6.10
2023-03-11T17:03:42.483Z,5.70
2023-03-11T17:06:10.902Z,7.20
2023-03-11T17:08:38.974Z,6.70
2023-03-11T17:11:19.904Z,8.40
2023-03-11T17:13:49.543Z,7.90
2023-03-11T17:16:17.712Z,4.40
2023-03-11T17:18:46.074Z,4.90
2023-03-11T17:21:15.646Z,4.90
2023-03-11T17:23:44.430Z,8.70
2023-03-11T17:26:16.597Z,5.80
2023-03-11T17:28:44.884Z,5.20
2023-03-11T17:31:15.164Z,5.40
2023-03-11T17:33:43.816Z,4.00
2023-03-11T17:36:15.607Z,6.50
2023-03-11T17:38:46.076Z,9.20
2023-03-11T17:41:17.068Z,6.50
2023-03-11T17:43:45.795Z,6.60
2023-03-11T17:46:17.042Z,7.20
2023-03-11T17:48:47.776Z,3.40
2023-03-11T17:51:25.034Z,5.10
2023-03-11T17:53:54.786Z,5.00
2023-03-11T17:56:24.178Z,4.60
2023-03-11T17:58:52.435Z,7.00
2023-03-11T18:01:24.094Z,7.80
2023-03-11T18:03:52.213Z,5.50
2023-03-11T18:06:21.684Z,6.50
2023-03-11T18:08:50.232Z,5.00
2023-03-11T18:11:22.117Z,4.70
2023-03-11T18:13:50.983Z,4.80
2023-03-11T18:16:25.805Z,5.70
2023-03-11T18:18:56.129Z,4.70
2023-03-11T18:21:29.420Z,4.70
2023-03-11T18:24:00.115Z,4.20
2023-03-11T18:26:29.721Z,4.00
2023-03-11T18:28:59.379Z,5.90
2023-03-11T18:31:29.538Z,5.10
2023-03-11T18:34:01.651Z,6.40
2023-03-11T18:36:36.844Z,4.10
2023-03-11T18:39:05.955Z,6.70
2023-03-11T18:41:35.195Z,3.30
2023-03-11T18:44:04.113Z,3.50
2023-03-11T18:46:32.514Z,3.80
2023-03-11T18:49:04.941Z,3.60
2023-03-11T18:51:33.145Z,3.20
2023-03-11T18:54:02.252Z,4.00
2023-03-11T18:56:33.099Z,4.10
2023-03-11T18:59:02.113Z,2.40
2023-03-11T19:01:31.317Z,7.40
2023-03-11T19:04:00.048Z,3.40
2023-03-11T19:06:29.512Z,3.10
2023-03-11T19:08:57.918Z,4.50
2023-03-11T19:11:26.252Z,3.90
2023-03-11T19:13:55.307Z,2.70
2023-03-11T19:16:27.515Z,3.80
2023-03-11T19:18:55.663Z,2.60
2023-03-11T19:21:26.053Z,5.10
2023-03-11T19:23:56.981Z,2.80
2023-03-11T19:26:41.489Z,3.90
2023-03-11T19:31:39.440Z,3.00
2023-03-11T19:34:07.643Z,4.40
2023-03-11T19:36:35.715Z,3.40
2023-03-11T19:39:04.753Z,2.10
2023-03-11T19:41:33.184Z,3.40
2023-03-11T19:44:03.648Z,2.20
2023-03-11T19:46:33.957Z,4.40
2023-03-11T19:49:04.080Z,6.00
2023-03-11T19:51:48.658Z,2.10
2023-03-11T19:54:18.890Z,2.20
2023-03-11T19:56:48.780Z,4.30
2023-03-11T19:59:17.895Z,1.20
2023-03-11T20:01:46.224Z,2.50
2023-03-11T20:04:14.771Z,1.80
2023-03-11T20:06:44.966Z,1.50
2023-03-11T20:09:15.524Z,4.20
2023-03-11T20:11:45.117Z,3.10
2023-03-11T20:14:14.537Z,5.60
2023-03-11T20:16:43.052Z,3.10
2023-03-11T20:19:11.344Z,1.60
2023-03-11T20:21:40.235Z,2.70
2023-03-11T20:24:10.205Z,2.00
2023-03-11T20:26:40.748Z,1.10
2023-03-11T20:29:08.949Z,3.00
2023-03-11T20:31:37.146Z,1.90
2023-03-11T20:34:05.934Z,2.90
2023-03-11T20:36:34.828Z,3.10
2023-03-11T20:39:05.228Z,2.40
2023-03-11T20:41:39.426Z,4.30
2023-03-11T20:44:12.837Z,1.50
2023-03-11T20:46:41.598Z,1.20
2023-03-11T20:49:10.326Z,2.80
2023-03-11T20:51:41.384Z,1.80
2023-03-11T20:54:11.595Z,2.90
2023-03-11T20:56:40.555Z,3.80
2023-03-11T20:59:12.302Z,2.30
2023-03-11T21:01:40.684Z,2.10
2023-03-11T21:04:10.083Z,3.10
2023-03-11T21:06:40.584Z,1.20
2023-03-11T21:09:14.121Z,1.10
2023-03-11T21:11:42.342Z,2.60
2023-03-11T21:14:13.881Z,1.70
2023-03-11T21:16:44.842Z,0.90
2023-03-11T21:19:13.556Z,1.70
2023-03-11T21:21:43.562Z,1.50
2023-03-11T21:24:13.760Z,1.90
2023-03-11T21:26:43.958Z,2.70
2023-03-11T21:29:12.245Z,2.40
2023-03-11T21:31:40.415Z,2.10
2023-03-11T21:34:11.191Z,2.00
2023-03-11T21:36:40.599Z,1.70
2023-03-11T21:39:08.937Z,1.70
2023-03-11T21:41:37.044Z,2.20
2023-03-11T21:44:05.435Z,1.70
2023-03-11T21:46:33.656Z,1.90
2023-03-11T21:49:03.363Z,2.10
2023-03-11T21:51:33.146Z,2.00
2023-03-11T21:54:03.048Z,1.90
2023-03-11T21:56:31.127Z,2.40
2023-03-11T21:58:59.294Z,2.30
2023-03-11T22:01:27.904Z,2.80
2023-03-11T22:03:57.051Z,2.40
2023-03-11T22:06:27.040Z,1.80
2023-03-11T22:08:55.308Z,2.50
2023-03-11T22:11:23.265Z,3.20
2023-03-11T22:13:53.346Z,4.30
2023-03-11T22:16:23.395Z,1.70
2023-03-11T22:18:52.753Z,3.80
2023-03-11T22:21:21.168Z,2.70
2023-03-11T22:23:49.292Z,1.90
2023-03-11T22:26:17.662Z,2.10
2023-03-11T22:28:45.886Z,1.80
2023-03-11T22:31:15.303Z,2.90
2023-03-11T22:33:43.629Z,7.20
2023-03-11T22:36:11.921Z,1.90
2023-03-11T22:38:42.192Z,3.00
2023-03-11T22:41:11.688Z,1.50
2023-03-11T22:43:40.037Z,2.90
2023-03-11T22:46:08.484Z,2.20
2023-03-11T22:48:36.613Z,2.60
2023-03-11T22:51:05.262Z,2.90
2023-03-11T22:53:33.311Z,2.20
2023-03-11T22:56:14.675Z,3.40
2023-03-11T22:58:43.381Z,2.70
2023-03-11T23:01:12.719Z,2.10
2023-03-11T23:03:42.806Z,1.90
2023-03-11T23:06:16.286Z,3.40
2023-03-11T23:08:44.648Z,1.60
2023-03-11T23:11:16.611Z,1.60
2023-03-11T23:13:44.741Z,1.60
2023-03-11T23:16:19.807Z,2.40
2023-03-11T23:18:53.909Z,2.50
2023-03-11T23:23:54.661Z,1.60
2023-03-11T23:26:23.909Z,2.80
2023-03-11T23:28:53.297Z,2.30
2023-03-11T23:31:24.171Z,2.20
2023-03-11T23:33:52.811Z,1.30
2023-03-11T23:36:24.291Z,1.80
2023-03-11T23:38:57.051Z,3.70
2023-03-11T23:41:25.127Z,2.10
2023-03-11T23:43:53.688Z,4.60
2023-03-11T23:46:21.830Z,2.20
2023-03-11T23:48:49.960Z,2.60
2023-03-11T23:51:18.018Z,1.70
2023-03-11T23:53:46.832Z,4.30
2023-03-11T23:56:17.346Z,2.90
2023-03-11T23:58:46.268Z,2.30
